Time;durP1;ratioP1;P1;durP2;ratioP2;P2;SDS_P1;SDS_P2;PMS_P1;PMS_P2;Temp;Humidity;BMP_temperature;BMP_pressure;BME280_temperature;BME280_humidity;BME280_pressure;Samples;Min_cycle;Max_cycle;Signal;HPM_P1;HPM_P2
2021/12/16 00:02:09;;;;;;;43.93;32.40;;;3.90;1.00;;;;;;5070331;28;20209;-79
2021/12/16 00:07:28;;;;;;;34.43;30.33;;;3.80;1.00;;;;;;5045027;28;20587;-83
2021/12/16 00:10:00;;;;;;;35.33;29.50;;;3.90;1.00;;;;;;5070548;28;20210;-83
2021/12/16 00:32:17;;;;;;;36.70;27.53;;;3.80;1.00;;;;;;5070975;28;20201;-77
2021/12/16 00:34:44;;;;;;;36.00;29.00;;;3.80;1.00;;;;;;5073272;28;20206;-76
2021/12/16 00:37:11;;;;;;;40.50;29.30;;;3.70;1.00;;;;;;5073774;28;20210;-76
2021/12/16 00:39:39;;;;;;;36.60;26.73;;;3.70;1.00;;;;;;5072911;28;20201;-75
2021/12/16 00:42:13;;;;;;;41.70;30.13;;;3.70;1.00;;;;;;5073297;28;20259;-81
2021/12/16 00:47:46;;;;;;;34.57;27.13;;;3.70;1.00;;;;;;5058109;28;20225;-79
2021/12/16 00:54:05;;;;;;;35.80;26.80;;;3.70;1.00;;;;;;5073870;28;20202;-84
2021/12/16 00:55:57;;;;;;;37.23;28.37;;;3.60;1.00;;;;;;5073749;28;20985;-80
2021/12/16 00:58:29;;;;;;;38.20;30.30;;;3.50;1.00;;;;;;5073125;28;20237;-78
2021/12/16 01:01:04;;;;;;;34.57;27.53;;;3.50;1.00;;;;;;5073007;28;20214;-77
2021/12/16 01:03:40;;;;;;;35.10;27.17;;;3.50;1.00;;;;;;5073432;28;20292;-77
2021/12/16 01:09:12;;;;;;;34.53;28.10;;;3.50;1.00;;;;;;5071970;28;20269;-77
2021/12/16 01:34:14;;;;;;;34.93;27.20;;;3.40;1.00;;;;;;5073161;28;20259;-80
2021/12/16 01:42:31;;;;;;;33.97;28.07;;;3.30;1.00;;;;;;5046852;28;20344;-85
2021/12/16 01:47:57;;;;;;;41.07;29.63;;;3.30;1.00;;;;;;5072525;28;20248;-81
2021/12/16 01:50:30;;;;;;;39.07;30.17;;;3.30;1.00;;;;;;5072927;28;20208;-82
2021/12/16 01:55:47;;;;;;;40.10;29.90;;;3.30;1.00;;;;;;5072116;28;20206;-81
2021/12/16 01:58:18;;;;;;;36.73;27.10;;;3.30;1.00;;;;;;5072875;28;20214;-83
2021/12/16 02:00:59;;;;;;;42.67;31.97;;;3.30;1.00;;;;;;5072426;28;20662;-83
2021/12/16 02:03:39;;;;;;;34.77;27.33;;;3.40;1.00;;;;;;5073013;28;20233;-82
2021/12/16 02:06:22;;;;;;;39.60;29.97;;;3.30;1.00;;;;;;5072523;28;20275;-83
2021/12/16 02:08:52;;;;;;;35.47;29.33;;;3.40;1.00;;;;;;5072141;28;20252;-83
2021/12/16 02:11:36;;;;;;;39.33;29.27;;;3.30;1.00;;;;;;5072926;28;20202;-83
2021/12/16 02:28:21;;;;;;;37.97;28.43;;;3.20;1.00;;;;;;5071294;28;20233;-78
2021/12/16 02:36:38;;;;;;;40.33;26.93;;;3.20;1.00;;;;;;5071616;28;20713;-79
2021/12/16 02:39:10;;;;;;;41.57;27.97;;;3.20;1.00;;;;;;5071260;28;20722;-78
2021/12/16 02:41:40;;;;;;;35.50;28.60;;;3.10;1.00;;;;;;5070918;28;20217;-79
2021/12/16 02:44:20;;;;;;;34.90;27.97;;;3.10;1.00;;;;;;5071344;28;20202;-81
2021/12/16 02:49:34;;;;;;;33.30;23.63;;;3.10;1.00;;;;;;5070229;28;20241;-76
2021/12/16 02:52:01;;;;;;;33.63;27.00;;;3.10;1.00;;;;;;5071650;28;20206;-79
2021/12/16 02:54:30;;;;;;;32.47;25.77;;;3.10;1.00;;;;;;5071602;28;20252;-79
2021/12/16 02:56:57;;;;;;;30.13;24.50;;;3.00;1.00;;;;;;5070810;28;20373;-79
2021/12/16 02:59:28;;;;;;;31.43;25.30;;;3.00;1.00;;;;;;5071013;28;20268;-79
2021/12/16 03:01:58;;;;;;;32.50;26.23;;;3.00;1.00;;;;;;5070989;28;20538;-80
2021/12/16 03:04:28;;;;;;;33.80;24.73;;;3.00;1.00;;;;;;5070886;28;20202;-81
2021/12/16 03:06:58;;;;;;;32.90;25.00;;;3.10;1.00;;;;;;5070576;28;20221;-81
2021/12/16 03:09:55;;;;;;;29.30;24.07;;;3.10;1.00;;;;;;5070839;28;20242;-81
2021/12/16 03:12:43;;;;;;;27.63;22.27;;;3.10;1.00;;;;;;5070948;28;20204;-79
2021/12/16 03:15:20;;;;;;;31.57;24.87;;;3.10;1.00;;;;;;5071123;28;20210;-80
2021/12/16 03:17:50;;;;;;;30.47;23.77;;;3.20;1.00;;;;;;5070345;28;20209;-78
2021/12/16 03:20:27;;;;;;;30.93;25.10;;;3.10;1.00;;;;;;5070738;28;20674;-78
2021/12/16 03:23:05;;;;;;;40.07;25.33;;;3.20;1.00;;;;;;5070999;28;20210;-77
2021/12/16 03:25:45;;;;;;;25.07;21.97;;;3.10;1.00;;;;;;5071209;28;20220;-78
2021/12/16 03:31:24;;;;;;;33.07;22.97;;;3.00;1.00;;;;;;5065705;28;20782;-78
2021/12/16 03:34:16;;;;;;;31.43;21.47;;;3.00;1.00;;;;;;5070238;28;20202;-79
2021/12/16 03:37:12;;;;;;;28.43;23.07;;;3.00;1.00;;;;;;5070325;28;20239;-81
2021/12/16 03:39:41;;;;;;;28.60;23.73;;;3.00;1.00;;;;;;5070509;28;20206;-78
2021/12/16 03:42:09;;;;;;;29.87;23.97;;;2.90;1.00;;;;;;5070527;28;20209;-79
2021/12/16 03:44:51;;;;;;;30.90;24.77;;;3.00;1.00;;;;;;5071048;28;20197;-75
2021/12/16 03:47:21;;;;;;;36.13;25.43;;;3.00;1.00;;;;;;5070834;28;20209;-84
2021/12/16 03:49:50;;;;;;;26.83;22.13;;;3.00;1.00;;;;;;5070580;28;20233;-79
2021/12/16 03:52:18;;;;;;;30.20;23.73;;;2.90;1.00;;;;;;5070751;28;20202;-78
2021/12/16 03:54:49;;;;;;;31.93;25.07;;;2.80;1.00;;;;;;5070354;28;20260;-77
2021/12/16 03:57:18;;;;;;;32.33;24.63;;;2.80;1.00;;;;;;5070641;28;20623;-79
2021/12/16 03:59:48;;;;;;;34.03;24.07;;;2.90;1.00;;;;;;5069976;28;20202;-77
2021/12/16 04:02:20;;;;;;;27.10;22.73;;;2.90;1.00;;;;;;5073504;28;20259;-79
2021/12/16 04:04:51;;;;;;;32.93;23.23;;;2.90;1.00;;;;;;5073911;28;20199;-79
2021/12/16 04:07:19;;;;;;;29.33;23.53;;;2.90;1.00;;;;;;5074090;28;20202;-79
2021/12/16 04:09:47;;;;;;;30.23;23.40;;;3.00;1.00;;;;;;5073671;28;20229;-79
2021/12/16 04:12:19;;;;;;;28.37;22.23;;;2.90;1.00;;;;;;5074069;28;20210;-79
2021/12/16 04:14:49;;;;;;;28.10;22.83;;;2.90;1.00;;;;;;5073599;28;20198;-78
2021/12/16 04:17:18;;;;;;;31.00;24.97;;;2.90;1.00;;;;;;5073697;28;20615;-76
2021/12/16 04:19:45;;;;;;;32.57;25.23;;;2.80;1.00;;;;;;5073632;28;20202;-76
2021/12/16 04:22:17;;;;;;;26.73;22.93;;;2.90;1.00;;;;;;5073937;28;20630;-77
2021/12/16 04:24:46;;;;;;;34.87;26.53;;;2.90;1.00;;;;;;5073417;28;20206;-77
2021/12/16 04:27:15;;;;;;;31.00;24.27;;;2.90;1.00;;;;;;5073989;28;20261;-78
2021/12/16 04:29:42;;;;;;;31.67;26.73;;;2.90;1.00;;;;;;5073610;28;20234;-78
2021/12/16 04:32:11;;;;;;;33.67;25.80;;;3.00;1.00;;;;;;5073458;28;20259;-79
2021/12/16 04:34:38;;;;;;;32.20;26.10;;;2.90;1.00;;;;;;5073389;28;20279;-78
2021/12/16 04:37:06;;;;;;;31.07;26.17;;;2.80;1.00;;;;;;5073590;28;20256;-78
2021/12/16 04:39:35;;;;;;;35.53;26.37;;;2.90;1.00;;;;;;5073882;28;20206;-78
2021/12/16 04:42:02;;;;;;;33.93;27.20;;;2.80;1.00;;;;;;5073587;28;20711;-78
2021/12/16 04:44:29;;;;;;;29.87;24.47;;;2.70;1.00;;;;;;5073990;28;20244;-78
2021/12/16 04:46:59;;;;;;;31.40;24.30;;;2.80;1.00;;;;;;5073054;28;20206;-77
2021/12/16 04:49:28;;;;;;;32.20;27.00;;;2.70;1.00;;;;;;5073498;28;20237;-76
2021/12/16 04:51:59;;;;;;;33.73;26.87;;;2.70;1.00;;;;;;5072969;28;20267;-78
2021/12/16 04:54:29;;;;;;;32.50;25.30;;;2.60;1.00;;;;;;5073410;28;20283;-79
2021/12/16 04:56:59;;;;;;;31.80;25.97;;;2.60;1.00;;;;;;5073284;28;20198;-76
2021/12/16 04:59:27;;;;;;;31.13;25.23;;;2.60;1.00;;;;;;5073486;28;20248;-77
2021/12/16 05:01:58;;;;;;;30.00;25.50;;;2.60;1.00;;;;;;5072703;28;20263;-79
2021/12/16 05:04:27;;;;;;;33.17;27.23;;;2.60;1.00;;;;;;5073432;28;20604;-81
2021/12/16 05:06:54;;;;;;;31.90;25.40;;;2.60;1.00;;;;;;5072795;28;20266;-80
2021/12/16 05:12:03;;;;;;;31.73;27.03;;;2.50;1.00;;;;;;5059524;28;20202;-78
2021/12/16 05:14:30;;;;;;;34.33;27.30;;;2.50;1.00;;;;;;5073207;28;20207;-78
2021/12/16 05:16:58;;;;;;;34.50;27.13;;;2.40;1.00;;;;;;5073293;28;20206;-84
2021/12/16 05:19:25;;;;;;;34.43;26.20;;;2.40;1.00;;;;;;5073564;28;20744;-86
2021/12/16 05:21:58;;;;;;;33.30;28.10;;;2.40;1.00;;;;;;5073371;28;20252;-78
2021/12/16 05:24:27;;;;;;;32.20;26.87;;;2.40;1.00;;;;;;5072752;28;20229;-78
2021/12/16 05:26:56;;;;;;;30.40;25.33;;;2.40;1.00;;;;;;5072399;28;20222;-77
2021/12/16 05:29:24;;;;;;;35.23;27.10;;;2.50;1.00;;;;;;5072425;28;20234;-80
2021/12/16 05:31:52;;;;;;;30.13;25.90;;;2.40;1.00;;;;;;5072158;28;20202;-80
2021/12/16 05:34:19;;;;;;;34.73;27.90;;;2.40;1.00;;;;;;5072858;28;20224;-81
2021/12/16 05:36:47;;;;;;;36.80;28.40;;;2.50;1.00;;;;;;5072488;28;20202;-81
2021/12/16 05:39:17;;;;;;;33.40;27.30;;;2.40;1.00;;;;;;5072638;28;20209;-80
2021/12/16 05:41:44;;;;;;;33.83;27.97;;;2.40;1.00;;;;;;5072148;28;20221;-77
2021/12/16 05:44:11;;;;;;;33.87;29.80;;;2.40;1.00;;;;;;5072293;28;20247;-78
2021/12/16 05:46:39;;;;;;;32.60;27.60;;;2.40;1.00;;;;;;5072298;28;20255;-76
2021/12/16 05:49:10;;;;;;;37.53;28.90;;;2.40;1.00;;;;;;5072428;28;20287;-78
2021/12/16 05:51:39;;;;;;;34.67;29.77;;;2.40;1.00;;;;;;5071986;28;20206;-78
2021/12/16 05:54:08;;;;;;;32.57;28.30;;;2.30;1.00;;;;;;5072343;28;20198;-75
2021/12/16 05:56:38;;;;;;;34.90;30.03;;;2.30;1.00;;;;;;5070864;28;20276;-74
2021/12/16 05:59:08;;;;;;;34.90;27.53;;;2.20;1.00;;;;;;5071781;28;20206;-75
2021/12/16 06:01:38;;;;;;;38.20;29.83;;;2.10;1.00;;;;;;5071878;28;20664;-78
2021/12/16 06:04:05;;;;;;;34.13;27.27;;;2.10;1.00;;;;;;5071435;28;20206;-80
2021/12/16 06:06:33;;;;;;;40.03;32.63;;;2.20;1.00;;;;;;5071930;28;20206;-80
2021/12/16 06:09:00;;;;;;;39.77;29.67;;;2.30;1.00;;;;;;5071864;28;20271;-77
2021/12/16 06:11:31;;;;;;;39.57;32.47;;;2.20;1.00;;;;;;5071307;28;20611;-77
2021/12/16 06:14:10;;;;;;;34.90;29.93;;;2.20;1.00;;;;;;5071917;28;20234;-77
2021/12/16 06:27:52;;;;;;;35.03;29.13;;;2.20;1.00;;;;;;5051736;28;20204;-76
2021/12/16 06:30:24;;;;;;;37.93;29.73;;;2.20;1.00;;;;;;5071172;28;20234;-75
2021/12/16 06:32:52;;;;;;;36.00;29.13;;;2.20;1.00;;;;;;5071306;28;20206;-75
2021/12/16 06:35:19;;;;;;;38.70;29.77;;;2.10;1.00;;;;;;5070960;28;20723;-76
2021/12/16 06:37:47;;;;;;;38.00;30.57;;;2.10;1.00;;;;;;5071381;28;20259;-89
2021/12/16 06:40:15;;;;;;;38.00;31.53;;;2.10;1.00;;;;;;5071231;28;20259;-79
2021/12/16 06:42:43;;;;;;;36.20;28.43;;;2.20;1.00;;;;;;5071470;28;20254;-77
2021/12/16 06:45:15;;;;;;;33.97;27.83;;;2.20;1.00;;;;;;5071340;28;20202;-76
2021/12/16 06:47:48;;;;;;;39.27;30.57;;;2.20;1.00;;;;;;5071157;28;20214;-76
2021/12/16 06:50:26;;;;;;;40.07;31.00;;;2.20;1.00;;;;;;5070972;28;20614;-77
2021/12/16 06:52:57;;;;;;;38.67;30.90;;;2.10;1.00;;;;;;5071126;28;20281;-76
2021/12/16 06:55:32;;;;;;;37.23;29.57;;;2.10;1.00;;;;;;5070523;28;20237;-73
2021/12/16 06:58:09;;;;;;;35.70;30.07;;;2.20;1.00;;;;;;5071117;28;20209;-80
2021/12/16 07:00:41;;;;;;;41.23;31.80;;;2.10;1.00;;;;;;5070804;28;20283;-78
2021/12/16 07:03:18;;;;;;;36.23;30.20;;;2.20;1.00;;;;;;5070972;28;20203;-80
2021/12/16 07:05:48;;;;;;;37.17;30.33;;;2.20;1.00;;;;;;5070812;28;20300;-79
2021/12/16 07:08:18;;;;;;;42.20;32.00;;;2.20;1.00;;;;;;5070974;28;20677;-77
2021/12/16 07:10:46;;;;;;;40.50;28.93;;;2.10;1.00;;;;;;5070876;28;20234;-79
2021/12/16 07:13:18;;;;;;;33.73;28.23;;;1.90;1.00;;;;;;5071110;28;20267;-82
2021/12/16 07:15:47;;;;;;;36.30;28.37;;;2.00;1.00;;;;;;5070838;28;20270;-79
2021/12/16 07:18:16;;;;;;;36.23;28.30;;;2.10;1.00;;;;;;5070648;28;20206;-80
2021/12/16 07:20:43;;;;;;;34.10;26.90;;;2.10;1.00;;;;;;5071459;28;20206;-83
2021/12/16 07:23:11;;;;;;;37.43;30.67;;;2.00;1.00;;;;;;5071298;28;20276;-83
2021/12/16 07:25:38;;;;;;;37.67;29.37;;;1.90;1.00;;;;;;5070944;28;20676;-74
2021/12/16 07:28:07;;;;;;;35.47;29.23;;;1.90;1.00;;;;;;5070817;28;20232;-75
2021/12/16 07:30:36;;;;;;;31.93;26.57;;;2.00;1.00;;;;;;5070807;28;20237;-78
2021/12/16 07:33:03;;;;;;;33.43;28.33;;;2.10;1.00;;;;;;5071188;28;20202;-78
2021/12/16 07:38:26;;;;;;;37.60;29.97;;;2.10;1.00;;;;;;5072166;28;20206;-77
2021/12/16 07:41:03;;;;;;;33.53;28.63;;;2.10;1.00;;;;;;5075341;28;20252;-76
2021/12/16 07:43:55;;;;;;;32.37;26.10;;;2.20;1.00;;;;;;5074452;28;20270;-73
2021/12/16 07:46:22;;;;;;;42.87;31.90;;;2.30;1.00;;;;;;5074167;28;20217;-76
2021/12/16 07:48:49;;;;;;;34.77;29.20;;;2.40;1.00;;;;;;5074417;28;20202;-77
2021/12/16 07:51:19;;;;;;;34.37;26.50;;;2.30;1.00;;;;;;5074013;28;20258;-70
2021/12/16 07:53:46;;;;;;;32.87;27.37;;;2.30;1.00;;;;;;5074731;28;20209;-79
2021/12/16 07:56:12;;;;;;;35.10;26.73;;;2.40;1.00;;;;;;5074301;28;20669;-79
2021/12/16 07:58:39;;;;;;;35.20;27.63;;;2.40;1.00;;;;;;5073926;28;20209;-79
2021/12/16 08:01:08;;;;;;;32.60;25.50;;;2.50;1.00;;;;;;5074478;28;20730;-80
2021/12/16 08:03:36;;;;;;;33.03;27.23;;;2.60;1.00;;;;;;5073949;28;20794;-79
2021/12/16 08:06:08;;;;;;;35.10;28.73;;;2.60;1.00;;;;;;5074150;28;20199;-79
2021/12/16 08:08:36;;;;;;;31.67;26.83;;;2.70;1.00;;;;;;5074067;28;20233;-79
2021/12/16 08:11:04;;;;;;;34.50;27.20;;;2.90;1.00;;;;;;5073878;28;20230;-78
2021/12/16 08:13:31;;;;;;;31.37;27.37;;;3.00;1.00;;;;;;5073755;28;20203;-77
2021/12/16 08:15:59;;;;;;;30.33;24.77;;;3.10;1.00;;;;;;5073772;28;20280;-79
2021/12/16 08:18:27;;;;;;;31.43;25.33;;;3.50;1.00;;;;;;5073840;28;20205;-77
2021/12/16 08:20:54;;;;;;;35.13;29.87;;;3.70;1.00;;;;;;5073535;28;20550;-77
2021/12/16 08:23:21;;;;;;;31.83;26.70;;;3.70;1.00;;;;;;5073576;28;20259;-77
2021/12/16 08:25:49;;;;;;;32.80;27.53;;;4.00;1.00;;;;;;5073938;28;20259;-78
2021/12/16 08:28:16;;;;;;;33.27;29.67;;;4.40;1.00;;;;;;5073240;28;20263;-68
2021/12/16 08:30:45;;;;;;;38.03;27.67;;;4.70;1.00;;;;;;5073577;28;20781;-77
2021/12/16 08:33:14;;;;;;;34.90;27.67;;;5.30;1.00;;;;;;5073629;28;20248;-78
2021/12/16 08:35:43;;;;;;;46.07;27.63;;;5.50;1.00;;;;;;5073279;28;20264;-76
2021/12/16 08:38:12;;;;;;;34.07;27.27;;;5.70;1.00;;;;;;5073742;28;20244;-75
2021/12/16 08:40:41;;;;;;;37.20;25.87;;;6.60;1.00;;;;;;5073249;28;20681;-77
2021/12/16 08:43:10;;;;;;;33.27;27.83;;;7.10;1.00;;;;;;5073673;28;20213;-75
2021/12/16 08:45:39;;;;;;;30.73;23.53;;;6.50;1.00;;;;;;5079657;28;20193;-74
2021/12/16 08:48:07;;;;;;;33.23;24.10;;;5.70;1.00;;;;;;5083555;28;20694;-79
2021/12/16 08:50:36;;;;;;;36.10;25.47;;;5.60;1.00;;;;;;5077852;28;20302;-76
2021/12/16 08:53:05;;;;;;;31.87;24.73;;;5.30;1.00;;;;;;5081978;28;20283;-67
2021/12/16 08:55:35;;;;;;;30.23;24.20;;;5.20;1.00;;;;;;5083098;28;20205;-78
2021/12/16 08:58:02;;;;;;;37.60;28.37;;;5.60;1.00;;;;;;5082728;28;20206;-74
2021/12/16 09:00:33;;;;;;;32.80;25.67;;;5.70;1.00;;;;;;5078838;28;20262;-74
2021/12/16 09:03:00;;;;;;;36.33;28.07;;;6.30;1.00;;;;;;5085452;28;20209;-78
2021/12/16 09:05:29;;;;;;;35.90;27.83;;;6.80;1.00;;;;;;5088657;28;20267;-81
2021/12/16 09:07:57;;;;;;;32.77;27.47;;;7.80;1.00;;;;;;5079329;28;20264;-80
2021/12/16 09:10:29;;;;;;;34.80;27.60;;;8.10;1.00;;;;;;5086292;28;20286;-79
2021/12/16 09:13:02;;;;;;;33.07;25.33;;;8.50;1.00;;;;;;5086038;28;20202;-79
2021/12/16 09:15:33;;;;;;;39.43;25.30;;;9.00;1.00;;;;;;5081497;28;20216;-79
2021/12/16 09:18:00;;;;;;;33.03;24.40;;;9.00;1.00;;;;;;5082134;28;20258;-79
2021/12/16 09:20:27;;;;;;;32.90;24.17;;;9.40;1.00;;;;;;5080877;28;20210;-80
2021/12/16 09:22:54;;;;;;;30.47;23.37;;;9.00;1.00;;;;;;5085439;28;20202;-78
2021/12/16 09:25:22;;;;;;;24.73;22.20;;;9.80;1.00;;;;;;5076082;28;20267;-79
2021/12/16 09:27:50;;;;;;;35.93;23.77;;;11.10;1.00;;;;;;5082438;28;20632;-79
2021/12/16 09:30:20;;;;;;;28.50;22.30;;;11.80;1.00;;;;;;5090753;28;20309;-77
2021/12/16 09:32:51;;;;;;;24.60;20.23;;;12.30;1.00;;;;;;5082908;28;20255;-79
2021/12/16 09:35:19;;;;;;;27.93;20.83;;;13.50;1.00;;;;;;5090139;28;20210;-79
2021/12/16 09:37:46;;;;;;;22.73;18.60;;;13.40;1.00;;;;;;5080018;28;20210;-79
2021/12/16 09:40:18;;;;;;;25.20;21.13;;;11.70;1.00;;;;;;5082021;28;20209;-76
2021/12/16 09:42:45;;;;;;;25.13;20.30;;;10.10;1.00;;;;;;5092293;28;20197;-80
2021/12/16 09:45:13;;;;;;;26.07;20.77;;;9.70;1.00;;;;;;5081631;28;20255;-68
2021/12/16 09:47:40;;;;;;;25.57;19.23;;;10.10;1.00;;;;;;5087807;28;20225;-80
2021/12/16 09:50:11;;;;;;;20.17;15.57;;;11.90;1.00;;;;;;5084939;28;20286;-80
2021/12/16 09:52:38;;;;;;;22.40;16.30;;;12.00;1.00;;;;;;5091720;28;20205;-79
2021/12/16 09:55:06;;;;;;;18.13;15.43;;;12.50;1.00;;;;;;5092204;28;20201;-79
2021/12/16 09:57:33;;;;;;;19.10;16.05;;;15.00;1.00;;;;;;5091453;28;20274;-80
2021/12/16 10:00:01;;;;;;;17.33;15.65;;;16.80;1.00;;;;;;5091215;28;20271;-80
2021/12/16 10:02:28;;;;;;;18.98;17.00;;;18.50;1.00;;;;;;5078836;28;20300;-80
2021/12/16 10:04:55;;;;;;;18.95;16.48;;;19.00;99.90;;;;;;5078055;28;20210;-78
2021/12/16 10:07:27;;;;;;;17.85;14.73;;;18.80;99.90;;;;;;5084730;28;20259;-79
2021/12/16 10:09:56;;;;;;;19.27;16.48;;;18.40;99.90;;;;;;5091272;28;20232;-80
2021/12/16 10:12:28;;;;;;;16.83;12.55;;;18.30;99.90;;;;;;5089406;28;20248;-77
2021/12/16 10:15:06;;;;;;;14.82;12.18;;;18.00;99.90;;;;;;5083037;28;20275;-80
2021/12/16 10:17:35;;;;;;;16.58;13.10;;;15.70;99.90;;;;;;5089224;28;20213;-79
2021/12/16 10:20:09;;;;;;;12.40;10.75;;;14.40;99.90;;;;;;5083062;28;20952;-79
2021/12/16 10:22:41;;;;;;;10.65;9.02;;;13.80;99.90;;;;;;5076449;28;20582;-80
2021/12/16 10:25:24;;;;;;;10.27;9.27;;;14.30;99.90;;;;;;5089344;28;20232;-79
2021/12/16 10:28:02;;;;;;;8.77;7.90;;;15.80;99.90;;;;;;5086910;28;20205;-77
2021/12/16 10:30:39;;;;;;;9.85;8.60;;;15.00;99.90;;;;;;5081516;28;20711;-66
2021/12/16 10:33:19;;;;;;;8.27;7.50;;;14.10;99.90;;;;;;5088000;28;20205;-78
2021/12/16 10:35:48;;;;;;;10.98;7.80;;;14.20;99.90;;;;;;5090914;28;20254;-67
2021/12/16 10:38:19;;;;;;;10.20;7.88;;;16.60;99.90;;;;;;5090603;28;20202;-67
2021/12/16 10:40:50;;;;;;;11.15;8.35;;;17.00;99.90;;;;;;5090801;28;20278;-77
2021/12/16 10:43:27;;;;;;;9.40;7.20;;;15.30;99.90;;;;;;5078133;28;20202;-70
2021/12/16 10:45:59;;;;;;;8.00;6.90;;;11.00;1.00;;;;;;5086413;28;20214;-75
2021/12/16 10:48:29;;;;;;;8.43;7.43;;;10.00;1.00;;;;;;5084196;28;20251;-72
2021/12/16 10:51:19;;;;;;;11.07;6.80;;;9.80;1.00;;;;;;5083193;28;20237;-77
2021/12/16 10:54:12;;;;;;;8.07;5.97;;;9.60;1.00;;;;;;5091298;28;20201;-80
2021/12/16 10:56:47;;;;;;;7.60;5.70;;;9.60;1.00;;;;;;5091270;28;20665;-78
2021/12/16 10:59:17;;;;;;;6.80;5.60;;;9.50;1.00;;;;;;5072708;28;20257;-69
2021/12/16 11:02:00;;;;;;;8.27;6.03;;;9.50;1.00;;;;;;5073774;28;20205;-74
2021/12/16 11:04:32;;;;;;;7.13;6.43;;;9.60;1.00;;;;;;5072648;28;20213;-79
2021/12/16 11:07:03;;;;;;;9.00;6.53;;;9.60;1.00;;;;;;5085702;28;20629;-77
2021/12/16 11:10:00;;;;;;;6.57;5.87;;;9.50;1.00;;;;;;5077807;28;20209;-66
2021/12/16 11:12:48;;;;;;;7.30;5.60;;;9.60;1.00;;;;;;5081875;28;20218;-77
2021/12/16 11:15:19;;;;;;;6.87;5.90;;;9.70;1.00;;;;;;5073529;28;20205;-76
2021/12/16 11:17:48;;;;;;;7.00;5.83;;;9.70;1.00;;;;;;5088249;28;20254;-77
2021/12/16 11:20:22;;;;;;;6.40;5.43;;;9.70;1.00;;;;;;5077733;28;20214;-78
2021/12/16 11:22:51;;;;;;;7.53;6.07;;;9.90;1.00;;;;;;5073356;28;20201;-76
2021/12/16 11:25:23;;;;;;;8.30;7.10;;;9.90;1.00;;;;;;5072439;28;20259;-75
2021/12/16 11:27:55;;;;;;;8.90;6.40;;;9.90;1.00;;;;;;5089197;28;20262;-73
2021/12/16 11:30:33;;;;;;;6.83;5.27;;;9.90;1.00;;;;;;5088859;28;20229;-75
2021/12/16 11:33:27;;;;;;;11.23;7.23;;;10.00;1.00;;;;;;5090218;28;20680;-75
2021/12/16 11:36:08;;;;;;;7.77;6.27;;;10.00;1.00;;;;;;5088967;28;20247;-77
2021/12/16 11:38:39;;;;;;;8.53;6.23;;;10.10;1.00;;;;;;5090229;28;20201;-76
2021/12/16 11:41:17;;;;;;;8.80;6.27;;;10.20;1.00;;;;;;5084675;28;20262;-76
2021/12/16 11:43:59;;;;;;;7.07;5.57;;;10.30;1.00;;;;;;5073754;28;20270;-67
2021/12/16 11:46:30;;;;;;;9.93;5.20;;;10.30;1.00;;;;;;5069694;28;20264;-76
2021/12/16 11:48:59;;;;;;;6.80;6.00;;;10.30;1.00;;;;;;5070378;28;20198;-74
2021/12/16 11:51:30;;;;;;;8.10;5.87;;;10.30;1.00;;;;;;5069931;28;20237;-76
2021/12/16 11:54:00;;;;;;;6.53;5.30;;;10.40;1.00;;;;;;5075512;28;20219;-74
2021/12/16 11:56:42;;;;;;;8.10;5.57;;;10.50;1.00;;;;;;5075133;28;20267;-75
2021/12/16 11:59:11;;;;;;;7.87;5.97;;;10.70;1.00;;;;;;5070313;28;20194;-75
2021/12/16 12:01:40;;;;;;;8.67;6.17;;;10.70;1.00;;;;;;5077141;28;20259;-72
2021/12/16 12:04:11;;;;;;;6.80;5.30;;;10.70;1.00;;;;;;5081453;28;20207;-74
2021/12/16 12:06:40;;;;;;;7.37;5.87;;;10.70;1.00;;;;;;5075299;28;20213;-75
2021/12/16 12:09:09;;;;;;;6.80;6.10;;;10.80;1.00;;;;;;5070369;28;20234;-74
2021/12/16 12:11:43;;;;;;;8.10;6.43;;;10.80;1.00;;;;;;5069870;28;20284;-75
2021/12/16 12:14:17;;;;;;;8.33;5.93;;;10.80;1.00;;;;;;5085654;28;20734;-75
2021/12/16 12:16:46;;;;;;;8.93;6.03;;;10.80;1.00;;;;;;5084209;28;20620;-68
2021/12/16 12:19:16;;;;;;;8.20;5.20;;;10.80;1.00;;;;;;5077930;28;20263;-75
2021/12/16 12:21:46;;;;;;;6.57;5.90;;;11.00;1.00;;;;;;5090656;28;20210;-74
2021/12/16 12:24:17;;;;;;;10.27;6.40;;;11.00;1.00;;;;;;5087172;28;20206;-75
2021/12/16 12:26:50;;;;;;;7.77;6.97;;;11.10;1.00;;;;;;5085094;28;20209;-66
2021/12/16 12:29:21;;;;;;;9.63;7.40;;;11.00;1.00;;;;;;5093124;28;20247;-71
2021/12/16 12:31:51;;;;;;;11.80;7.00;;;11.00;1.00;;;;;;5082973;28;20221;-69
2021/12/16 12:34:19;;;;;;;9.33;7.63;;;11.10;1.00;;;;;;5091659;28;20202;-69
2021/12/16 12:36:48;;;;;;;11.70;6.70;;;11.20;1.00;;;;;;5093475;28;20206;-70
2021/12/16 12:39:18;;;;;;;9.50;7.57;;;11.20;1.00;;;;;;5082647;28;20210;-69
2021/12/16 12:41:47;;;;;;;13.47;7.20;;;11.30;1.00;;;;;;5091490;28;20741;-69
2021/12/16 12:44:14;;;;;;;11.10;8.23;;;11.30;1.00;;;;;;5089872;28;20201;-74
2021/12/16 12:46:44;;;;;;;8.77;7.87;;;11.30;1.00;;;;;;5093580;28;20209;-75
2021/12/16 12:49:16;;;;;;;13.10;8.43;;;11.30;1.00;;;;;;5089599;28;20198;-75
2021/12/16 12:51:46;;;;;;;12.53;8.40;;;11.30;1.00;;;;;;5083505;28;20300;-72
2021/12/16 12:54:23;;;;;;;9.57;7.73;;;11.40;1.00;;;;;;5084145;28;20680;-76
2021/12/16 12:56:52;;;;;;;14.33;8.70;;;11.50;1.00;;;;;;5081785;28;20193;-65
2021/12/16 12:59:20;;;;;;;12.07;8.37;;;11.50;1.00;;;;;;5091290;28;20258;-75
2021/12/16 13:01:50;;;;;;;9.70;7.63;;;11.50;1.00;;;;;;5080525;28;20665;-75
2021/12/16 13:04:23;;;;;;;9.60;6.63;;;11.50;1.00;;;;;;5091716;28;20647;-77
2021/12/16 13:07:00;;;;;;;13.50;8.43;;;11.60;1.00;;;;;;5092355;28;20271;-76
2021/12/16 13:09:35;;;;;;;10.97;8.23;;;11.60;1.00;;;;;;5091314;28;20274;-74
2021/12/16 13:12:06;;;;;;;9.30;7.97;;;11.50;1.00;;;;;;5077461;28;20712;-71
2021/12/16 13:14:47;;;;;;;11.27;7.43;;;11.50;1.00;;;;;;5085180;28;20288;-68
2021/12/16 13:26:14;;;;;;;9.20;6.07;;;11.70;1.00;;;;;;5083364;28;20208;-65
2021/12/16 13:28:50;;;;;;;6.80;6.10;;;11.60;1.00;;;;;;5082510;28;20258;-74
2021/12/16 13:31:34;;;;;;;7.77;6.17;;;11.60;1.00;;;;;;5091222;28;20241;-75
2021/12/16 13:34:03;;;;;;;6.93;5.33;;;11.70;1.00;;;;;;5089870;28;20201;-77
2021/12/16 13:36:43;;;;;;;8.53;6.50;;;11.80;1.00;;;;;;5075994;28;20214;-65
2021/12/16 13:39:15;;;;;;;6.10;5.27;;;11.80;1.00;;;;;;5082101;28;20201;-67
2021/12/16 13:41:58;;;;;;;8.10;5.93;;;11.70;1.00;;;;;;5085402;28;20213;-68
2021/12/16 13:44:59;;;;;;;8.80;5.83;;;11.70;1.00;;;;;;5086231;28;20205;-76
2021/12/16 13:47:48;;;;;;;13.10;5.67;;;11.70;1.00;;;;;;5068627;28;20217;-77
2021/12/16 14:02:00;;;;;;;11.40;5.77;;;11.60;1.00;;;;;;5086420;28;20201;-64
2021/12/16 14:04:42;;;;;;;9.03;6.27;;;11.70;1.00;;;;;;5091615;28;20681;-78
2021/12/16 14:10:04;;;;;;;10.33;5.97;;;11.60;1.00;;;;;;5091642;28;20763;-78
2021/12/16 14:15:19;;;;;;;6.43;5.73;;;11.50;1.00;;;;;;5092016;28;20201;-77
2021/12/16 14:17:54;;;;;;;8.17;6.20;;;11.60;1.00;;;;;;5091939;28;20665;-77
2021/12/16 14:23:24;;;;;;;12.70;6.00;;;11.50;1.00;;;;;;5091407;28;20583;-71
2021/12/16 14:37:32;;;;;;;8.30;6.33;;;11.60;1.00;;;;;;5089688;28;20202;-77
2021/12/16 14:40:11;;;;;;;6.87;6.00;;;11.50;1.00;;;;;;5091391;28;20205;-76
2021/12/16 14:43:01;;;;;;;10.37;5.90;;;11.60;1.00;;;;;;5090979;28;20217;-76
2021/12/16 14:45:37;;;;;;;5.37;4.83;;;11.50;1.00;;;;;;5090914;28;20661;-76
2021/12/16 14:50:56;;;;;;;8.83;5.77;;;11.30;1.00;;;;;;5090935;28;20673;-78
2021/12/16 14:53:28;;;;;;;6.67;5.77;;;11.30;1.00;;;;;;5090674;28;20631;-78
2021/12/16 14:56:04;;;;;;;10.53;6.27;;;11.30;1.00;;;;;;5091239;28;20209;-78
2021/12/16 14:58:31;;;;;;;8.07;5.70;;;11.30;1.00;;;;;;5090831;28;20228;-77
2021/12/16 15:01:03;;;;;;;11.37;7.13;;;11.20;1.00;;;;;;5091309;28;20241;-77
2021/12/16 15:03:36;;;;;;;11.50;7.30;;;11.30;1.00;;;;;;5090821;28;20205;-77
2021/12/16 15:06:06;;;;;;;10.23;7.60;;;11.20;1.00;;;;;;5091104;28;20255;-77
2021/12/16 15:08:40;;;;;;;10.60;9.03;;;11.20;1.00;;;;;;5085594;28;20584;-77
2021/12/16 15:11:12;;;;;;;12.97;9.07;;;11.10;1.00;;;;;;5091097;28;20282;-77
2021/12/16 15:13:44;;;;;;;9.13;8.17;;;11.10;1.00;;;;;;5090736;28;20201;-78
2021/12/16 15:16:35;;;;;;;13.40;9.07;;;11.00;1.00;;;;;;5091279;28;20201;-75
2021/12/16 15:39:00;;;;;;;9.83;8.10;;;10.60;1.00;;;;;;5028150;28;20207;-76
2021/12/16 15:44:13;;;;;;;14.87;8.00;;;10.50;1.00;;;;;;5090939;28;20209;-73
2021/12/16 15:46:41;;;;;;;12.93;8.77;;;10.30;1.00;;;;;;5090680;28;20227;-77
2021/12/16 15:49:09;;;;;;;9.83;7.80;;;10.10;1.00;;;;;;5090863;28;20250;-78
2021/12/16 15:51:36;;;;;;;11.27;7.53;;;10.10;1.00;;;;;;5089977;28;20266;-78
2021/12/16 15:54:06;;;;;;;16.53;8.23;;;10.00;1.00;;;;;;5090669;28;20201;-78
2021/12/16 15:56:37;;;;;;;12.17;8.73;;;9.90;1.00;;;;;;5091158;28;20212;-77
2021/12/16 15:59:07;;;;;;;10.50;7.83;;;9.80;1.00;;;;;;5094556;28;20672;-76
2021/12/16 16:01:38;;;;;;;8.60;6.73;;;9.70;1.00;;;;;;5094360;28;20819;-76
2021/12/16 16:04:11;;;;;;;9.70;8.23;;;9.70;1.00;;;;;;5094500;28;20210;-77
2021/12/16 16:06:41;;;;;;;10.63;8.53;;;9.70;1.00;;;;;;5093962;28;20202;-76